Time;durP1;ratioP1;P1;durP2;ratioP2;P2;SDS_P1;SDS_P2;PMS_P1;PMS_P2;Temp;Humidity;BMP_temperature;BMP_pressure;BME280_temperature;BME280_humidity;BME280_pressure;Samples;Min_cycle;Max_cycle;Signal;HPM_P1;HPM_P2
2021/10/20 00:01:19;;;;;;;7.88;2.17;;;20.60;69.40;;;;;;5073412;28;20036;-66
2021/10/20 00:03:47;;;;;;;6.78;3.03;;;20.50;69.50;;;;;;5073226;28;20032;-64
2021/10/20 00:06:14;;;;;;;10.02;2.78;;;20.50;70.10;;;;;;5072032;28;20039;-67
2021/10/20 00:08:42;;;;;;;5.70;1.60;;;20.50;69.80;;;;;;5072930;28;20021;-65
2021/10/20 00:11:09;;;;;;;4.90;1.40;;;20.50;70.60;;;;;;5072451;28;20483;-63
2021/10/20 00:13:37;;;;;;;5.38;2.17;;;20.50;69.40;;;;;;5072600;28;20477;-65
2021/10/20 00:16:05;;;;;;;4.25;1.90;;;20.60;70.60;;;;;;5072411;28;20025;-66
2021/10/20 00:18:32;;;;;;;5.32;2.00;;;20.70;68.40;;;;;;5055069;28;20032;-66
2021/10/20 00:21:04;;;;;;;5.97;2.63;;;20.80;69.40;;;;;;5072401;28;20032;-64
2021/10/20 00:23:31;;;;;;;7.55;2.47;;;20.80;71.30;;;;;;5072814;28;20371;-64
2021/10/20 00:25:59;;;;;;;6.50;2.67;;;20.80;71.00;;;;;;5072193;28;20402;-65
2021/10/20 00:28:26;;;;;;;3.08;1.95;;;20.80;72.00;;;;;;5072779;28;20031;-68
2021/10/20 00:30:54;;;;;;;4.82;1.35;;;20.90;72.10;;;;;;5063076;28;20029;-69
2021/10/20 00:33:24;;;;;;;5.68;2.10;;;21.10;71.30;;;;;;5069257;28;20017;-67
2021/10/20 00:35:51;;;;;;;6.53;1.85;;;21.20;70.50;;;;;;5068528;28;20028;-63
2021/10/20 00:38:18;;;;;;;5.05;1.52;;;21.20;70.00;;;;;;5069360;28;20371;-64
2021/10/20 00:40:46;;;;;;;8.90;2.42;;;21.20;67.10;;;;;;5072499;28;20028;-58
2021/10/20 00:43:13;;;;;;;5.22;1.83;;;21.60;69.20;;;;;;5071818;28;20029;-60
2021/10/20 00:45:41;;;;;;;3.08;1.75;;;21.60;68.40;;;;;;5072163;28;20063;-57
2021/10/20 00:48:08;;;;;;;3.83;1.92;;;21.60;68.60;;;;;;5074432;28;20489;-59
2021/10/20 00:50:35;;;;;;;8.27;1.80;;;21.70;69.20;;;;;;5076561;28;20028;-59
2021/10/20 00:53:03;;;;;;;4.70;1.63;;;21.70;67.60;;;;;;5075815;28;20056;-59
2021/10/20 00:55:31;;;;;;;6.75;1.55;;;21.80;66.10;;;;;;5076231;28;20039;-58
2021/10/20 00:57:59;;;;;;;6.70;1.33;;;21.80;66.10;;;;;;5076863;28;20050;-61
2021/10/20 01:00:27;;;;;;;4.57;1.60;;;21.90;65.50;;;;;;5076784;28;20039;-60
2021/10/20 01:02:55;;;;;;;6.60;1.83;;;21.90;64.80;;;;;;5075834;28;20348;-54
2021/10/20 01:05:23;;;;;;;27.92;22.80;;;21.90;63.90;;;;;;5075987;28;20025;-62
2021/10/20 01:07:51;;;;;;;11.40;5.97;;;21.90;63.10;;;;;;5075980;28;20021;-58
2021/10/20 01:10:18;;;;;;;8.70;2.83;;;21.90;62.80;;;;;;5076105;28;20406;-59
2021/10/20 01:12:46;;;;;;;9.20;3.45;;;21.90;62.80;;;;;;5076546;28;20097;-61
2021/10/20 01:15:20;;;;;;;4.68;3.00;;;21.90;64.40;;;;;;5076383;28;20024;-61
2021/10/20 01:17:54;;;;;;;7.57;2.40;;;21.80;64.70;;;;;;5076449;28;20033;-61
2021/10/20 01:20:30;;;;;;;15.52;3.97;;;21.80;65.80;;;;;;5077054;28;20475;-60
2021/10/20 01:22:58;;;;;;;9.48;2.75;;;21.70;66.70;;;;;;5059013;28;20028;-61
2021/10/20 01:25:26;;;;;;;7.68;3.78;;;21.70;66.80;;;;;;5075984;28;20360;-65
2021/10/20 01:27:54;;;;;;;11.80;4.22;;;21.80;67.10;;;;;;5076068;28;20043;-62
2021/10/20 01:30:21;;;;;;;10.52;3.20;;;21.80;67.40;;;;;;5075812;28;20083;-65
2021/10/20 01:32:48;;;;;;;7.50;3.38;;;21.70;67.20;;;;;;5075733;28;20017;-61
2021/10/20 01:35:16;;;;;;;5.40;3.45;;;21.90;66.00;;;;;;5075313;28;20021;-64
2021/10/20 01:37:44;;;;;;;11.13;3.78;;;21.90;66.90;;;;;;5075794;28;20033;-62
2021/10/20 01:40:14;;;;;;;8.82;4.25;;;22.00;66.70;;;;;;5075509;28;20020;-62
2021/10/20 01:42:41;;;;;;;8.50;3.60;;;22.00;66.70;;;;;;5064794;28;20028;-61
2021/10/20 01:45:11;;;;;;;5.65;3.40;;;22.10;66.20;;;;;;5069048;28;20029;-63
2021/10/20 01:47:38;;;;;;;10.55;4.47;;;22.10;66.60;;;;;;5070835;28;20467;-58
2021/10/20 01:50:09;;;;;;;7.40;4.00;;;22.10;66.20;;;;;;5072452;28;20095;-61
2021/10/20 01:52:36;;;;;;;10.27;3.88;;;22.20;66.10;;;;;;5071217;28;20044;-65
2021/10/20 01:55:06;;;;;;;9.13;4.60;;;22.20;66.20;;;;;;5071878;28;20386;-61
2021/10/20 01:57:34;;;;;;;13.70;4.25;;;22.20;65.30;;;;;;5068692;28;20032;-60
2021/10/20 02:00:02;;;;;;;8.05;3.35;;;22.30;65.60;;;;;;5071027;28;20051;-61
2021/10/20 02:02:29;;;;;;;3.85;3.00;;;22.40;65.10;;;;;;5071713;28;20444;-60
2021/10/20 02:04:56;;;;;;;6.80;2.75;;;22.40;64.20;;;;;;5071571;28;20028;-63
2021/10/20 02:07:24;;;;;;;4.90;2.95;;;22.40;63.90;;;;;;5066872;28;20076;-62
2021/10/20 02:09:51;;;;;;;7.00;3.83;;;22.50;64.90;;;;;;5070350;28;20037;-61
2021/10/20 02:12:19;;;;;;;4.47;2.92;;;22.50;65.50;;;;;;5070667;28;20029;-61
2021/10/20 02:14:46;;;;;;;8.05;3.35;;;22.50;65.00;;;;;;5070991;28;20108;-60
2021/10/20 02:17:14;;;;;;;8.30;3.53;;;22.50;65.30;;;;;;5064240;28;20040;-59
2021/10/20 02:19:41;;;;;;;9.00;3.97;;;22.50;64.30;;;;;;5069043;28;20027;-61
2021/10/20 02:22:09;;;;;;;5.90;3.15;;;22.50;65.50;;;;;;5071500;28;20105;-61
2021/10/20 02:24:36;;;;;;;4.18;2.88;;;22.60;64.10;;;;;;5068265;28;20028;-61
2021/10/20 02:27:04;;;;;;;5.07;3.00;;;22.60;64.00;;;;;;5067922;28;20090;-63
2021/10/20 02:29:31;;;;;;;6.45;2.72;;;22.60;64.70;;;;;;5074628;28;20031;-62
2021/10/20 02:32:02;;;;;;;5.80;2.75;;;22.60;64.60;;;;;;5074548;28;20027;-63
2021/10/20 02:34:29;;;;;;;4.15;2.80;;;22.60;64.70;;;;;;5074335;28;20031;-62
2021/10/20 02:36:57;;;;;;;5.70;3.13;;;22.60;65.80;;;;;;5074186;28;20494;-62
2021/10/20 02:39:24;;;;;;;4.13;2.40;;;22.60;64.80;;;;;;5074079;28;20025;-61
2021/10/20 02:41:52;;;;;;;7.53;2.58;;;22.60;65.10;;;;;;5073687;28;20035;-60
2021/10/20 02:44:19;;;;;;;7.50;2.40;;;22.60;64.40;;;;;;5074399;28;20040;-62
2021/10/20 02:46:46;;;;;;;4.97;2.50;;;22.70;64.20;;;;;;5074235;28;20016;-62
2021/10/20 02:49:14;;;;;;;6.25;2.13;;;22.70;64.10;;;;;;5073969;28;20025;-64
2021/10/20 02:51:41;;;;;;;6.20;2.38;;;22.70;64.00;;;;;;5073904;28;20052;-61
2021/10/20 02:54:08;;;;;;;2.95;2.05;;;22.70;64.70;;;;;;5073654;28;20099;-62
2021/10/20 02:56:36;;;;;;;8.80;2.60;;;22.70;63.00;;;;;;5074327;28;20586;-61
2021/10/20 02:59:03;;;;;;;4.63;2.38;;;22.80;64.60;;;;;;5073889;28;20099;-61
2021/10/20 03:01:31;;;;;;;4.55;2.40;;;22.80;64.70;;;;;;5074085;28;20428;-63
2021/10/20 03:03:58;;;;;;;4.22;2.30;;;22.80;64.80;;;;;;5073458;28;20036;-61
2021/10/20 03:06:25;;;;;;;5.63;2.00;;;22.80;64.90;;;;;;5073410;28;20056;-63
2021/10/20 03:08:53;;;;;;;3.90;1.88;;;22.90;61.80;;;;;;5073532;28;20028;-61
2021/10/20 03:11:20;;;;;;;6.07;2.10;;;22.90;64.40;;;;;;5072511;28;20056;-61
2021/10/20 03:13:47;;;;;;;3.28;2.15;;;23.00;63.00;;;;;;5073835;28;20036;-62
2021/10/20 03:16:15;;;;;;;3.85;1.50;;;23.00;63.10;;;;;;5073451;28;20040;-61
2021/10/20 03:18:42;;;;;;;4.72;1.58;;;23.10;63.10;;;;;;5073665;28;20017;-65
2021/10/20 03:21:09;;;;;;;4.97;2.45;;;23.20;63.10;;;;;;5072872;28;20036;-62
2021/10/20 03:23:37;;;;;;;3.65;1.95;;;23.20;63.60;;;;;;5073457;28;20528;-62
2021/10/20 03:26:04;;;;;;;3.05;1.20;;;23.20;62.80;;;;;;5073970;28;20024;-64
2021/10/20 03:28:31;;;;;;;3.50;1.90;;;23.20;62.80;;;;;;5073573;28;20058;-64
2021/10/20 03:30:59;;;;;;;3.92;2.05;;;23.20;62.70;;;;;;5073026;28;20470;-62
2021/10/20 03:33:26;;;;;;;5.55;2.00;;;23.20;63.40;;;;;;5071656;28;20082;-60
2021/10/20 03:35:56;;;;;;;4.45;1.90;;;23.20;63.20;;;;;;5073056;28;20112;-63
2021/10/20 03:38:24;;;;;;;7.28;1.92;;;23.30;62.80;;;;;;5073513;28;20025;-63
2021/10/20 03:40:51;;;;;;;4.63;1.73;;;23.30;62.20;;;;;;5060799;28;20024;-61
2021/10/20 03:43:19;;;;;;;6.15;1.80;;;23.40;62.90;;;;;;5070122;28;20086;-62
2021/10/20 03:45:46;;;;;;;5.10;2.45;;;23.40;62.60;;;;;;5070097;28;20490;-64
2021/10/20 03:48:13;;;;;;;3.22;2.10;;;23.40;62.30;;;;;;5069621;28;20387;-66
2021/10/20 03:50:41;;;;;;;4.03;2.22;;;23.40;61.90;;;;;;5064198;28;20044;-64
2021/10/20 03:53:08;;;;;;;4.18;1.98;;;23.40;63.10;;;;;;5069725;28;20055;-61
2021/10/20 03:55:36;;;;;;;3.00;2.08;;;23.40;62.20;;;;;;5069333;28;20113;-61
2021/10/20 03:58:04;;;;;;;4.28;2.08;;;23.40;62.80;;;;;;5068898;28;20028;-60
2021/10/20 04:00:34;;;;;;;4.43;2.17;;;23.50;61.80;;;;;;5066724;28;20048;-59
2021/10/20 04:03:02;;;;;;;2.53;1.98;;;23.50;63.30;;;;;;5069592;28;20031;-62
2021/10/20 04:05:29;;;;;;;4.35;2.28;;;23.50;63.00;;;;;;5071700;28;20375;-63
2021/10/20 04:07:56;;;;;;;3.88;2.53;;;23.50;63.30;;;;;;5072531;28;20145;-63
2021/10/20 04:10:26;;;;;;;6.55;2.10;;;23.50;63.20;;;;;;5071463;28;20079;-64
2021/10/20 04:12:55;;;;;;;7.65;2.13;;;23.50;63.70;;;;;;5072216;28;20161;-62
2021/10/20 04:15:29;;;;;;;3.15;1.50;;;23.40;64.30;;;;;;5072558;28;20028;-64
2021/10/20 04:17:56;;;;;;;4.00;2.03;;;23.40;64.20;;;;;;5072378;28;20040;-64
2021/10/20 04:20:25;;;;;;;3.50;2.00;;;23.50;63.40;;;;;;5072414;28;20043;-59
2021/10/20 04:22:53;;;;;;;4.38;1.60;;;23.50;63.90;;;;;;5072060;28;20034;-61
2021/10/20 04:25:22;;;;;;;5.68;1.90;;;23.70;63.50;;;;;;5072571;28;20025;-61
2021/10/20 04:27:51;;;;;;;3.88;1.70;;;23.70;63.20;;;;;;5072184;28;20036;-61
2021/10/20 04:30:20;;;;;;;5.18;1.80;;;23.70;64.00;;;;;;5072285;28;20032;-60
2021/10/20 04:32:47;;;;;;;5.35;1.77;;;23.60;63.60;;;;;;5072286;28;20079;-57
2021/10/20 04:35:15;;;;;;;3.67;1.20;;;23.60;64.50;;;;;;5072131;28;20364;-59
2021/10/20 04:37:42;;;;;;;3.67;1.65;;;23.50;63.80;;;;;;5072399;28;20040;-60
2021/10/20 04:40:11;;;;;;;7.80;1.40;;;23.40;64.20;;;;;;5072397;28;20471;-59
2021/10/20 04:42:40;;;;;;;10.93;2.08;;;23.40;63.40;;;;;;5071970;28;20024;-61
2021/10/20 04:45:09;;;;;;;3.80;1.30;;;23.40;64.10;;;;;;5071723;28;20035;-56
2021/10/20 04:47:36;;;;;;;3.40;1.90;;;23.30;64.30;;;;;;5071939;28;20039;-56
2021/10/20 04:50:07;;;;;;;4.35;1.20;;;23.40;64.40;;;;;;5072225;28;20078;-60
2021/10/20 04:52:35;;;;;;;8.98;1.33;;;23.30;64.20;;;;;;5071929;28;20049;-55
2021/10/20 04:55:04;;;;;;;2.47;1.35;;;23.40;64.00;;;;;;5071938;28;20093;-57
2021/10/20 04:57:31;;;;;;;2.33;1.08;;;23.40;63.60;;;;;;5062917;28;20388;-56
2021/10/20 04:59:59;;;;;;;4.82;1.00;;;23.40;62.20;;;;;;5069104;28;20104;-61
2021/10/20 05:02:26;;;;;;;7.85;1.52;;;23.30;62.60;;;;;;5072195;28;20040;-59
2021/10/20 05:04:53;;;;;;;10.70;1.42;;;23.40;62.50;;;;;;5071730;28;20048;-58
2021/10/20 05:07:21;;;;;;;3.40;1.10;;;23.40;62.40;;;;;;5071762;28;20029;-58
2021/10/20 05:09:49;;;;;;;4.75;1.35;;;23.30;62.40;;;;;;5071755;28;20382;-58
2021/10/20 05:12:17;;;;;;;3.78;1.05;;;23.40;62.80;;;;;;5072063;28;20035;-58
2021/10/20 05:14:44;;;;;;;3.58;1.08;;;23.40;62.70;;;;;;5071562;28;20027;-61
2021/10/20 05:17:12;;;;;;;1.98;1.00;;;23.40;62.90;;;;;;5072049;28;20046;-60
2021/10/20 05:19:39;;;;;;;4.18;1.10;;;23.40;63.20;;;;;;5070391;28;20486;-61
2021/10/20 05:22:09;;;;;;;4.22;1.45;;;23.40;63.60;;;;;;5071185;28;20043;-58
2021/10/20 05:24:36;;;;;;;6.57;1.15;;;23.40;63.70;;;;;;5071987;28;20142;-59
2021/10/20 05:27:04;;;;;;;7.20;1.33;;;23.40;64.10;;;;;;5069863;28;20111;-62
2021/10/20 05:29:32;;;;;;;3.40;1.13;;;23.40;64.60;;;;;;5071141;28;20081;-59
2021/10/20 05:32:01;;;;;;;2.70;0.82;;;23.40;64.70;;;;;;5071867;28;20036;-57
2021/10/20 05:34:29;;;;;;;7.25;1.50;;;23.40;65.10;;;;;;5075046;28;20383;-57
2021/10/20 05:36:56;;;;;;;10.73;1.55;;;23.40;65.40;;;;;;5075312;28;20402;-60
2021/10/20 05:39:25;;;;;;;12.68;1.48;;;23.50;65.40;;;;;;5074319;28;20025;-57
2021/10/20 05:41:52;;;;;;;4.32;1.35;;;23.50;65.10;;;;;;5075513;28;20025;-56
2021/10/20 05:44:20;;;;;;;5.22;1.30;;;23.50;65.50;;;;;;5075774;28;20356;-56
2021/10/20 05:46:49;;;;;;;10.75;1.38;;;23.50;65.90;;;;;;5075650;28;20086;-61
2021/10/20 05:49:17;;;;;;;6.25;1.20;;;23.50;65.90;;;;;;5075599;28;20021;-58
2021/10/20 05:51:47;;;;;;;10.63;1.35;;;23.60;65.80;;;;;;5075154;28;20426;-57
2021/10/20 05:54:14;;;;;;;9.35;1.27;;;23.50;65.50;;;;;;5073978;28;20481;-57
2021/10/20 05:56:42;;;;;;;5.47;2.30;;;23.60;65.10;;;;;;5074487;28;20036;-61
2021/10/20 05:59:09;;;;;;;8.15;2.17;;;23.70;65.70;;;;;;5074875;28;20028;-58
2021/10/20 06:01:37;;;;;;;12.55;1.70;;;23.70;65.90;;;;;;5074816;28;20013;-61
2021/10/20 06:04:04;;;;;;;7.13;1.38;;;23.70;66.10;;;;;;5074012;28;20387;-59
2021/10/20 06:06:31;;;;;;;4.32;1.10;;;23.70;65.90;;;;;;5075036;28;20076;-56
2021/10/20 06:08:59;;;;;;;5.18;1.42;;;23.70;66.00;;;;;;5074638;28;20029;-57
2021/10/20 06:11:26;;;;;;;6.22;1.75;;;23.60;65.80;;;;;;5075650;28;20028;-58
2021/10/20 06:13:53;;;;;;;7.20;1.50;;;23.70;66.20;;;;;;5075346;28;20031;-61
2021/10/20 06:16:21;;;;;;;8.13;1.95;;;23.70;66.60;;;;;;5075464;28;20025;-62
2021/10/20 06:18:48;;;;;;;9.70;1.70;;;23.70;65.90;;;;;;5075024;28;20028;-58
2021/10/20 06:21:16;;;;;;;6.07;1.40;;;23.70;66.30;;;;;;5075014;28;20147;-61
2021/10/20 06:23:43;;;;;;;9.52;1.52;;;23.70;66.00;;;;;;5075240;28;20040;-59
2021/10/20 06:26:10;;;;;;;10.25;1.92;;;23.70;67.20;;;;;;5075560;28;20474;-60
2021/10/20 06:28:38;;;;;;;7.40;1.27;;;23.60;67.00;;;;;;5075027;28;20012;-61
2021/10/20 06:31:06;;;;;;;10.20;1.83;;;23.60;67.40;;;;;;5075806;28;20025;-59
2021/10/20 06:33:33;;;;;;;13.02;1.58;;;23.60;67.60;;;;;;5075454;28;20027;-59
2021/10/20 06:36:02;;;;;;;6.00;1.63;;;23.50;68.10;;;;;;5073765;28;20036;-59
2021/10/20 06:38:30;;;;;;;3.67;1.23;;;23.50;68.20;;;;;;5073968;28;20025;-56
2021/10/20 06:40:57;;;;;;;5.47;1.13;;;23.50;68.50;;;;;;5074748;28;20436;-58
2021/10/20 06:43:24;;;;;;;10.55;1.30;;;23.50;69.40;;;;;;5074749;28;20017;-58
2021/10/20 06:45:52;;;;;;;9.60;1.58;;;23.50;69.30;;;;;;5073045;28;20025;-56
2021/10/20 06:48:19;;;;;;;7.63;2.00;;;23.40;69.50;;;;;;5074530;28;20028;-55
2021/10/20 06:50:46;;;;;;;6.30;2.55;;;23.40;69.80;;;;;;5074623;28;20020;-57
2021/10/20 06:53:14;;;;;;;8.75;1.90;;;23.30;69.50;;;;;;5074256;28;20071;-58
2021/10/20 06:55:41;;;;;;;7.30;2.90;;;23.40;69.20;;;;;;5073706;28;20479;-58
2021/10/20 06:58:08;;;;;;;8.15;2.80;;;23.30;69.20;;;;;;5072216;28;20039;-57
2021/10/20 07:00:36;;;;;;;7.63;2.42;;;23.30;70.10;;;;;;5074047;28;20028;-62
2021/10/20 07:03:03;;;;;;;7.70;2.53;;;23.30;69.50;;;;;;5073526;28;20070;-55
2021/10/20 07:05:31;;;;;;;9.23;2.70;;;23.20;69.60;;;;;;5073688;28;20114;-57
2021/10/20 07:07:58;;;;;;;6.45;2.45;;;23.20;70.40;;;;;;5074375;28;20029;-59
2021/10/20 07:10:25;;;;;;;6.63;2.20;;;23.10;69.40;;;;;;5074092;28;20445;-60
2021/10/20 07:12:54;;;;;;;16.38;12.23;;;23.10;69.70;;;;;;5063875;28;20074;-61
2021/10/20 07:15:22;;;;;;;20.30;13.23;;;23.00;69.60;;;;;;5070376;28;20111;-55
2021/10/20 07:17:49;;;;;;;26.27;22.40;;;22.90;69.30;;;;;;5068060;28;20043;-59
2021/10/20 07:20:16;;;;;;;9.68;7.15;;;22.90;69.50;;;;;;5068719;28;20020;-59
2021/10/20 07:22:44;;;;;;;18.30;13.30;;;22.80;69.10;;;;;;5070204;28;20123;-56
2021/10/20 07:25:17;;;;;;;18.77;13.73;;;22.80;69.60;;;;;;5068188;28;20054;-51
2021/10/20 07:27:46;;;;;;;25.17;22.08;;;22.80;69.60;;;;;;5069548;28;20092;-55
2021/10/20 07:30:14;;;;;;;23.20;19.15;;;22.70;69.20;;;;;;5070091;28;20029;-51
2021/10/20 07:32:42;;;;;;;18.88;14.10;;;22.60;69.60;;;;;;5070798;28;20021;-57
2021/10/20 07:35:12;;;;;;;27.20;22.90;;;22.50;69.20;;;;;;5072690;28;20126;-53
2021/10/20 07:37:41;;;;;;;33.83;30.30;;;22.50;69.30;;;;;;5073058;28;20097;-53
2021/10/20 07:40:12;;;;;;;34.13;29.30;;;22.40;69.30;;;;;;5072999;28;20021;-54
2021/10/20 07:42:40;;;;;;;16.10;12.02;;;22.40;69.90;;;;;;5072673;28;20025;-52
2021/10/20 07:45:09;;;;;;;11.98;10.43;;;22.40;69.90;;;;;;5072679;28;20029;-49
2021/10/20 07:47:37;;;;;;;11.57;10.38;;;22.40;70.30;;;;;;5072988;28;20028;-51
2021/10/20 07:50:06;;;;;;;25.55;23.02;;;22.40;70.60;;;;;;5072735;28;20116;-51
2021/10/20 07:52:33;;;;;;;19.75;16.33;;;22.30;70.30;;;;;;5072412;28;20510;-54
2021/10/20 07:55:02;;;;;;;13.88;12.50;;;22.40;70.50;;;;;;5071116;28;20029;-53
2021/10/20 07:57:29;;;;;;;14.90;13.30;;;22.40;70.60;;;;;;5071401;28;20032;-51
2021/10/20 07:59:57;;;;;;;8.05;6.38;;;22.30;71.10;;;;;;5072751;28;20025;-55
2021/10/20 08:02:25;;;;;;;14.00;11.68;;;22.30;71.70;;;;;;5072067;28;20141;-58
2021/10/20 08:04:52;;;;;;;15.05;10.13;;;22.20;71.80;;;;;;5072591;28;20025;-56
2021/10/20 08:07:19;;;;;;;9.77;6.10;;;22.20;72.50;;;;;;5072685;28;20372;-56
2021/10/20 08:09:48;;;;;;;6.28;4.20;;;22.20;73.70;;;;;;5072166;28;20475;-58
2021/10/20 08:12:17;;;;;;;6.57;4.18;;;22.20;73.00;;;;;;5072597;28;20053;-59
2021/10/20 08:14:44;;;;;;;10.52;3.45;;;22.10;73.10;;;;;;5072485;28;20039;-57
2021/10/20 08:17:12;;;;;;;64.00;51.17;;;22.10;74.00;;;;;;5072383;28;20121;-52
2021/10/20 08:19:39;;;;;;;14.52;6.03;;;22.10;74.50;;;;;;5072743;28;20040;-55
2021/10/20 08:22:07;;;;;;;17.30;13.95;;;22.00;75.30;;;;;;5072444;28;20063;-54
2021/10/20 08:24:35;;;;;;;15.60;8.82;;;22.00;75.30;;;;;;5072413;28;20387;-55
2021/10/20 08:27:02;;;;;;;20.08;13.45;;;22.00;76.40;;;;;;5072533;28;20031;-53
2021/10/20 08:29:29;;;;;;;15.63;8.15;;;22.00;76.80;;;;;;5072642;28;20400;-56
2021/10/20 08:31:57;;;;;;;16.23;10.48;;;22.00;76.80;;;;;;5072255;28;20034;-56
2021/10/20 08:34:52;;;;;;;20.15;11.02;;;21.90;77.30;;;;;;5072250;28;20020;-54
2021/10/20 08:37:20;;;;;;;29.92;23.05;;;21.90;77.60;;;;;;5071501;28;20074;-55
2021/10/20 08:39:47;;;;;;;25.60;20.52;;;21.90;79.90;;;;;;5071341;28;20537;-58
2021/10/20 08:42:15;;;;;;;34.17;30.00;;;21.90;80.00;;;;;;5070654;28;20087;-54
2021/10/20 08:44:42;;;;;;;67.72;60.83;;;21.90;80.50;;;;;;5072448;28;20122;-56
2021/10/20 08:47:12;;;;;;;51.38;45.63;;;21.90;81.80;;;;;;5071909;28;20090;-56
2021/10/20 08:49:40;;;;;;;21.88;15.05;;;21.90;81.30;;;;;;5072381;28;20017;-56
2021/10/20 08:52:10;;;;;;;18.40;15.27;;;21.90;82.70;;;;;;5072295;28;20090;-58
2021/10/20 08:54:37;;;;;;;19.15;10.77;;;21.80;83.60;;;;;;5071431;28;20024;-59
2021/10/20 08:57:05;;;;;;;15.60;13.90;;;21.80;84.10;;;;;;5072001;28;20036;-60
2021/10/20 08:59:35;;;;;;;25.80;22.60;;;21.80;84.10;;;;;;5072329;28;20040;-58
2021/10/20 09:02:06;;;;;;;17.98;12.77;;;21.90;84.50;;;;;;5071667;28;20069;-57
2021/10/20 09:04:37;;;;;;;20.10;10.02;;;21.80;85.10;;;;;;5071828;28;20024;-52
2021/10/20 09:07:14;;;;;;;18.00;9.93;;;21.80;83.70;;;;;;5071737;28;20035;-62
2021/10/20 09:09:42;;;;;;;26.95;7.60;;;21.70;84.70;;;;;;5075272;28;20032;-57
2021/10/20 09:12:09;;;;;;;21.10;12.30;;;21.60;84.30;;;;;;5076243;28;20113;-66
2021/10/20 09:14:37;;;;;;;15.00;6.80;;;21.60;83.80;;;;;;5076366;28;20430;-63
2021/10/20 09:17:05;;;;;;;10.52;6.57;;;21.50;83.50;;;;;;5075637;28;20064;-66
2021/10/20 09:19:33;;;;;;;12.07;5.53;;;21.50;82.80;;;;;;5074774;28;20020;-59
2021/10/20 09:22:09;;;;;;;8.45;4.35;;;21.50;83.10;;;;;;5076073;28;20032;-66
2021/10/20 09:24:41;;;;;;;9.05;3.85;;;21.40;81.90;;;;;;5076005;28;20024;-63
2021/10/20 09:27:29;;;;;;;8.20;4.28;;;21.40;82.50;;;;;;5076050;28;20370;-63
2021/10/20 09:30:13;;;;;;;8.02;3.38;;;21.40;81.00;;;;;;5067504;28;20371;-59
2021/10/20 09:32:43;;;;;;;13.98;3.90;;;21.30;81.70;;;;;;5069968;28;20063;-58
2021/10/20 09:35:12;;;;;;;23.15;11.23;;;21.40;82.00;;;;;;5069767;28;20057;-66
2021/10/20 09:37:41;;;;;;;62.00;31.50;;;21.40;81.70;;;;;;5070151;28;20055;-53
2021/10/20 09:40:12;;;;;;;92.93;45.17;;;21.30;81.30;;;;;;5068381;28;20450;-57
2021/10/20 09:42:51;;;;;;;122.63;61.47;;;21.40;81.10;;;;;;5069283;28;20070;-54
2021/10/20 09:45:21;;;;;;;111.43;56.35;;;21.40;80.90;;;;;;5069277;28;20029;-60
2021/10/20 09:47:49;;;;;;;108.93;54.75;;;21.30;80.80;;;;;;5071379;28;20475;-56
2021/10/20 09:50:17;;;;;;;119.97;59.00;;;21.30;80.60;;;;;;5068521;28;20028;-62
2021/10/20 09:52:53;;;;;;;110.05;57.97;;;21.30;80.90;;;;;;5067974;28;20098;-52
2021/10/20 09:55:28;;;;;;;112.18;57.88;;;21.30;80.90;;;;;;5069786;28;20116;-53
2021/10/20 09:58:19;;;;;;;115.22;59.25;;;21.30;80.80;;;;;;5069768;28;20044;-57
2021/10/20 10:00:46;;;;;;;122.28;61.45;;;21.30;80.80;;;;;;5067085;28;20463;-59
2021/10/20 10:03:14;;;;;;;126.07;62.70;;;21.30;80.80;;;;;;5071789;28;20024;-57
2021/10/20 10:05:41;;;;;;;117.75;59.53;;;21.20;80.80;;;;;;5071009;28;20111;-60
2021/10/20 10:08:09;;;;;;;117.80;63.05;;;21.20;80.80;;;;;;5072050;28;20024;-54
2021/10/20 10:10:36;;;;;;;113.07;60.30;;;21.20;80.70;;;;;;5068166;28;20035;-63
2021/10/20 10:13:17;;;;;;;116.50;59.83;;;21.20;80.60;;;;;;5072033;28;20047;-61
2021/10/20 10:15:45;;;;;;;116.45;61.00;;;21.20;80.60;;;;;;5069582;28;20040;-61
2021/10/20 10:18:20;;;;;;;112.65;59.63;;;21.20;80.70;;;;;;5072447;28;20041;-67
2021/10/20 10:20:48;;;;;;;111.75;60.60;;;21.20;80.60;;;;;;5066221;28;20028;-60
2021/10/20 10:23:26;;;;;;;107.43;59.45;;;21.10;80.60;;;;;;5071943;28;20063;-66
2021/10/20 10:26:03;;;;;;;114.63;60.08;;;21.10;80.60;;;;;;5072003;28;20052;-51
2021/10/20 10:28:36;;;;;;;111.45;59.25;;;21.10;80.50;;;;;;5072073;28;20036;-60
2021/10/20 10:31:04;;;;;;;121.75;59.58;;;21.10;80.40;;;;;;5066722;28;20090;-59
2021/10/20 10:33:33;;;;;;;110.97;59.55;;;21.10;80.40;;;;;;5071283;28;20031;-63
2021/10/20 10:36:18;;;;;;;108.88;59.70;;;21.10;80.40;;;;;;5071698;28;20033;-62
2021/10/20 10:39:00;;;;;;;111.20;57.30;;;21.10;80.40;;;;;;5067820;28;20031;-62
2021/10/20 10:41:52;;;;;;;107.97;57.60;;;21.00;80.30;;;;;;5068064;28;20027;-62
2021/10/20 10:44:22;;;;;;;98.32;52.78;;;21.00;80.50;;;;;;5069108;28;20025;-60
2021/10/20 10:47:07;;;;;;;109.88;54.53;;;20.90;80.20;;;;;;5071609;28;20052;-62
2021/10/20 10:49:53;;;;;;;101.90;57.55;;;20.90;80.50;;;;;;5067448;28;20028;-61
2021/10/20 10:52:30;;;;;;;101.88;53.60;;;20.90;80.50;;;;;;5069582;28;20048;-61
2021/10/20 10:55:23;;;;;;;107.72;56.40;;;20.90;81.00;;;;;;5070279;28;20032;-61
2021/10/20 10:57:55;;;;;;;108.70;56.05;;;20.90;80.40;;;;;;5070055;28;20040;-62
2021/10/20 11:00:24;;;;;;;;;;;20.90;80.40;;;;;;5068375;28;20025;-60
2021/10/20 11:02:57;;;;;;;92.28;51.13;;;20.90;80.20;;;;;;5071618;28;19919;-58
2021/10/20 11:05:43;;;;;;;104.28;53.15;;;20.80;80.20;;;;;;5071424;28;20025;-61
2021/10/20 11:08:12;;;;;;;94.13;52.40;;;20.80;80.10;;;;;;5070292;28;20032;-59
2021/10/20 11:10:42;;;;;;;95.90;53.28;;;20.80;80.20;;;;;;5068171;28;20114;-56
2021/10/20 11:13:22;;;;;;;100.10;52.75;;;20.80;80.00;;;;;;5071210;28;20027;-60
2021/10/20 11:16:07;;;;;;;96.28;51.58;;;20.80;80.00;;;;;;5070404;28;20111;-63
2021/10/20 11:18:36;;;;;;;95.85;51.00;;;20.80;80.10;;;;;;5070519;28;20024;-54
2021/10/20 11:21:04;;;;;;;85.70;46.88;;;20.80;79.90;;;;;;5066978;28;20020;-61
2021/10/20 11:23:33;;;;;;;91.78;48.95;;;20.80;80.00;;;;;;5070673;28;20036;-59
2021/10/20 11:26:02;;;;;;;86.90;48.85;;;20.70;79.90;;;;;;5070997;28;20025;-56
2021/10/20 11:28:38;;;;;;;86.55;47.67;;;20.70;79.90;;;;;;5070552;28;20036;-59
2021/10/20 11:31:10;;;;;;;82.70;46.45;;;20.80;79.80;;;;;;5063121;28;20051;-61
2021/10/20 11:33:38;;;;;;;79.60;46.92;;;20.70;79.80;;;;;;5070850;28;20033;-64
2021/10/20 11:36:17;;;;;;;86.68;47.45;;;20.70;79.90;;;;;;5070018;28;20051;-62
2021/10/20 11:38:45;;;;;;;86.85;46.53;;;20.70;79.90;;;;;;5068816;28;20066;-62
2021/10/20 11:41:19;;;;;;;83.70;47.28;;;20.70;79.90;;;;;;5065679;28;20112;-57
2021/10/20 11:43:55;;;;;;;71.43;42.28;;;20.70;79.80;;;;;;5068724;28;20032;-56
2021/10/20 11:46:27;;;;;;;75.78;42.47;;;20.60;79.70;;;;;;5070229;28;20025;-55
2021/10/20 11:49:01;;;;;;;69.57;40.67;;;20.70;79.70;;;;;;5070033;28;20028;-60
2021/10/20 11:51:31;;;;;;;83.78;45.28;;;20.60;79.70;;;;;;5048970;28;20060;-61
2021/10/20 11:54:08;;;;;;;78.63;44.00;;;20.70;79.70;;;;;;5070617;28;20455;-62
2021/10/20 11:56:37;;;;;;;76.13;42.85;;;20.60;79.60;;;;;;5069167;28;20028;-61
2021/10/20 11:59:17;;;;;;;80.93;43.88;;;20.60;79.60;;;;;;5064956;28;20021;-61
2021/10/20 12:01:44;;;;;;;71.35;41.63;;;20.60;79.60;;;;;;5068249;28;20025;-61
2021/10/20 12:04:13;;;;;;;69.45;39.33;;;20.60;79.60;;;;;;5070148;28;20048;-62
2021/10/20 12:06:41;;;;;;;78.15;42.08;;;20.60;79.60;;;;;;5065552;28;20386;-59
2021/10/20 12:09:13;;;;;;;66.40;39.72;;;20.60;79.60;;;;;;5069366;28;20020;-54
2021/10/20 12:11:41;;;;;;;72.75;39.38;;;20.60;79.60;;;;;;5068021;28;20040;-58
2021/10/20 12:14:15;;;;;;;70.88;39.55;;;20.50;79.50;;;;;;5070271;28;20043;-61
2021/10/20 12:16:43;;;;;;;73.35;40.72;;;20.50;80.10;;;;;;5068155;28;20029;-63
2021/10/20 12:19:14;;;;;;;68.63;39.75;;;20.50;79.50;;;;;;5068007;28;20071;-59
2021/10/20 12:21:43;;;;;;;70.93;38.97;;;20.50;79.40;;;;;;5067394;28;20036;-56
2021/10/20 12:24:18;;;;;;;71.88;38.35;;;20.50;79.40;;;;;;5069519;28;20040;-59
2021/10/20 12:26:46;;;;;;;64.30;36.17;;;20.50;79.40;;;;;;5067003;28;20102;-62
2021/10/20 12:29:16;;;;;;;64.40;36.30;;;20.50;79.40;;;;;;5049728;28;20033;-60
2021/10/20 12:31:44;;;;;;;67.57;36.25;;;20.50;79.40;;;;;;5066840;28;20113;-63
2021/10/20 12:34:14;;;;;;;64.68;37.88;;;20.50;79.30;;;;;;5069151;28;20051;-59
2021/10/20 12:36:43;;;;;;;70.05;38.47;;;20.50;79.30;;;;;;5069559;28;20067;-61
2021/10/20 12:39:10;;;;;;;67.88;38.58;;;20.40;79.40;;;;;;5067338;28;20108;-60
2021/10/20 12:41:38;;;;;;;61.50;35.72;;;20.40;79.30;;;;;;5066505;28;20051;-62
2021/10/20 12:44:08;;;;;;;66.68;35.65;;;20.40;79.30;;;;;;5069734;28;20412;-59
2021/10/20 12:46:43;;;;;;;59.08;34.53;;;20.40;79.20;;;;;;5069518;28;20021;-56
2021/10/20 12:49:12;;;;;;;60.45;34.45;;;20.40;79.10;;;;;;5068136;28;20050;-61